createdAt,value
2023-10-20T00:01:26.817Z,29.02
2023-10-20T00:04:03.148Z,26.95
2023-10-20T00:06:31.708Z,26.52
2023-10-20T00:11:47.880Z,26.90
2023-10-20T00:14:20.619Z,27.85
2023-10-20T00:20:05.694Z,28.33
2023-10-20T00:25:34.390Z,26.45
2023-10-20T00:28:06.765Z,28.67
2023-10-20T00:30:42.168Z,32.72
2023-10-20T00:33:11.783Z,29.08
2023-10-20T00:35:47.724Z,29.85
2023-10-20T00:38:18.399Z,30.42
2023-10-20T00:40:50.726Z,25.70
2023-10-20T00:43:19.612Z,26.63
2023-10-20T00:45:49.152Z,26.33
2023-10-20T00:48:18.128Z,25.65
2023-10-20T00:50:48.081Z,25.02
2023-10-20T00:53:19.783Z,26.65
2023-10-20T00:55:48.445Z,22.90
2023-10-20T00:58:18.643Z,21.45
2023-10-20T01:00:51.100Z,22.35
2023-10-20T01:03:21.598Z,24.70
2023-10-20T01:05:54.529Z,25.05
2023-10-20T01:08:26.631Z,31.27
2023-10-20T01:10:55.823Z,32.05
2023-10-20T01:13:24.939Z,34.85
2023-10-20T01:15:53.572Z,39.42
2023-10-20T01:18:22.354Z,37.95
2023-10-20T01:20:54.431Z,40.08
2023-10-20T01:23:22.770Z,36.33
2023-10-20T01:25:52.994Z,40.05
2023-10-20T01:28:27.685Z,31.25
2023-10-20T01:31:01.429Z,32.85
2023-10-20T01:33:30.301Z,30.80
2023-10-20T01:36:03.350Z,27.90
2023-10-20T01:38:32.311Z,24.67
2023-10-20T01:41:00.917Z,29.05
2023-10-20T01:43:30.667Z,26.00
2023-10-20T01:46:00.302Z,32.47
2023-10-20T01:48:29.075Z,28.05
2023-10-20T01:50:57.938Z,29.88
2023-10-20T01:53:27.403Z,25.17
2023-10-20T01:55:56.480Z,25.27
2023-10-20T01:58:25.750Z,25.40
2023-10-20T02:00:57.404Z,29.23
2023-10-20T02:03:27.698Z,27.52
2023-10-20T02:05:57.632Z,26.25
2023-10-20T02:08:27.348Z,28.75
2023-10-20T02:10:55.751Z,30.15
2023-10-20T02:13:25.934Z,29.13
2023-10-20T02:15:54.948Z,33.30
2023-10-20T02:18:24.945Z,36.47
2023-10-20T02:21:00.825Z,43.28
2023-10-20T02:23:33.117Z,35.40
2023-10-20T02:26:09.912Z,36.55
2023-10-20T02:28:39.393Z,40.45
2023-10-20T02:31:16.102Z,36.33
2023-10-20T02:33:44.741Z,43.63
2023-10-20T02:36:20.698Z,34.20
2023-10-20T02:38:54.555Z,41.35
2023-10-20T02:41:23.169Z,40.05
2023-10-20T02:43:51.399Z,41.75
2023-10-20T02:46:21.407Z,46.83
2023-10-20T02:48:50.165Z,42.20
2023-10-20T02:51:19.374Z,58.42
2023-10-20T02:53:48.911Z,49.17
2023-10-20T02:56:19.394Z,60.22
2023-10-20T02:58:48.731Z,48.08
2023-10-20T03:01:19.557Z,50.50
2023-10-20T03:03:48.390Z,67.78
2023-10-20T03:06:18.497Z,50.60
2023-10-20T03:08:47.944Z,53.78
2023-10-20T03:11:16.690Z,46.78
2023-10-20T03:13:47.614Z,53.67
2023-10-20T03:16:16.423Z,49.88
2023-10-20T03:18:45.014Z,52.15
2023-10-20T03:21:17.026Z,53.13
2023-10-20T03:26:31.411Z,55.08
2023-10-20T03:29:03.833Z,47.65
2023-10-20T03:31:36.855Z,45.30
2023-10-20T03:34:07.121Z,40.15
2023-10-20T03:36:35.911Z,47.38
2023-10-20T03:39:19.659Z,50.67
2023-10-20T03:41:53.020Z,43.80
2023-10-20T03:44:25.654Z,43.13
2023-10-20T03:47:00.715Z,44.63
2023-10-20T03:49:37.907Z,52.92
2023-10-20T03:52:15.354Z,49.90
2023-10-20T03:54:58.652Z,52.22
2023-10-20T03:57:29.032Z,54.30
2023-10-20T03:59:58.709Z,56.70
2023-10-20T04:02:27.353Z,56.33
2023-10-20T04:04:57.004Z,55.67
2023-10-20T04:07:26.889Z,55.95
2023-10-20T04:09:55.827Z,60.30
2023-10-20T04:12:25.795Z,52.05
2023-10-20T04:14:58.159Z,61.05
2023-10-20T04:17:30.693Z,62.17
2023-10-20T04:20:00.496Z,63.00
2023-10-20T04:22:28.864Z,63.72
2023-10-20T04:24:57.024Z,71.45
2023-10-20T04:27:45.136Z,65.90
2023-10-20T04:30:33.874Z,68.13
2023-10-20T04:33:23.711Z,75.40
2023-10-20T04:36:11.676Z,65.55
2023-10-20T04:38:59.940Z,73.38
2023-10-20T04:41:50.268Z,68.35
2023-10-20T04:44:24.122Z,63.75
2023-10-20T04:47:13.513Z,65.38
2023-10-20T04:49:50.550Z,70.70
2023-10-20T04:52:21.816Z,68.28
2023-10-20T04:55:09.504Z,76.30
2023-10-20T04:57:59.620Z,71.05
2023-10-20T05:00:28.118Z,71.65
2023-10-20T05:03:01.549Z,83.90
2023-10-20T05:05:49.441Z,71.32
2023-10-20T05:08:20.482Z,74.13
2023-10-20T05:10:51.304Z,72.72
2023-10-20T05:13:22.894Z,75.95
2023-10-20T05:15:52.965Z,81.60
2023-10-20T05:18:22.332Z,74.82
2023-10-20T05:20:53.009Z,74.63
2023-10-20T05:23:22.061Z,81.80
2023-10-20T05:25:50.799Z,77.40
2023-10-20T05:28:19.986Z,79.47
2023-10-20T05:30:50.865Z,74.53
2023-10-20T05:33:21.065Z,77.70
2023-10-20T05:35:52.988Z,72.05
2023-10-20T05:38:22.509Z,86.75
2023-10-20T05:40:59.980Z,73.53
2023-10-20T05:43:29.068Z,82.55
2023-10-20T05:45:57.753Z,76.47
2023-10-20T05:48:26.550Z,80.50
2023-10-20T05:51:00.404Z,69.97
2023-10-20T05:53:29.281Z,74.45
2023-10-20T05:55:59.585Z,81.88
2023-10-20T05:58:30.644Z,71.40
2023-10-20T06:01:13.203Z,72.32
2023-10-20T06:03:43.198Z,79.85
2023-10-20T06:06:12.163Z,74.22
2023-10-20T06:08:41.598Z,87.47
2023-10-20T06:11:10.774Z,86.50
2023-10-20T06:14:05.979Z,80.18
2023-10-20T06:16:35.865Z,87.63
2023-10-20T06:19:05.127Z,89.18
2023-10-20T06:21:33.883Z,78.45
2023-10-20T06:46:25.602Z,54.38
2023-10-20T06:53:38.082Z,46.85
2023-10-20T06:56:31.326Z,41.55
2023-10-20T06:59:00.255Z,41.90
2023-10-20T07:09:15.889Z,36.50
2023-10-20T07:11:46.198Z,32.17
2023-10-20T07:14:15.581Z,33.20
2023-10-20T07:16:47.278Z,31.33
2023-10-20T07:19:15.812Z,32.85
2023-10-20T07:21:44.452Z,34.58
2023-10-20T07:24:12.965Z,31.58
2023-10-20T07:26:41.646Z,27.95
2023-10-20T07:29:11.114Z,30.73
2023-10-20T07:31:41.457Z,28.88
2023-10-20T07:34:11.154Z,36.75
2023-10-20T07:36:39.500Z,31.00
2023-10-20T07:39:10.260Z,29.60
2023-10-20T07:41:39.237Z,31.40
2023-10-20T07:44:07.758Z,28.65
2023-10-20T07:46:37.139Z,28.50
2023-10-20T07:49:06.037Z,33.30
2023-10-20T07:51:34.737Z,29.75
2023-10-20T07:54:03.318Z,32.28
2023-10-20T07:56:32.313Z,31.65
2023-10-20T07:59:00.682Z,30.98
2023-10-20T08:01:29.573Z,27.08
2023-10-20T08:03:58.361Z,28.48
2023-10-20T08:06:28.754Z,27.90
2023-10-20T08:08:57.214Z,24.75
2023-10-20T08:11:25.607Z,26.55
2023-10-20T08:13:55.391Z,24.20
2023-10-20T08:16:24.333Z,30.15
2023-10-20T08:18:54.974Z,27.10
2023-10-20T08:21:27.805Z,29.55
2023-10-20T08:29:33.920Z,26.27
2023-10-20T08:32:03.491Z,28.52
2023-10-20T08:34:34.542Z,27.02
2023-10-20T08:37:04.473Z,30.92
2023-10-20T08:39:33.401Z,25.48
2023-10-20T08:42:02.143Z,26.58
2023-10-20T08:44:31.884Z,21.52
2023-10-20T08:47:01.522Z,24.58
2023-10-20T08:49:30.401Z,21.60
2023-10-20T08:51:59.742Z,22.50
2023-10-20T08:54:28.750Z,23.65
2023-10-20T08:56:57.174Z,23.65
2023-10-20T08:59:27.826Z,26.27
2023-10-20T09:01:57.037Z,22.35
2023-10-20T09:04:28.824Z,24.33
2023-10-20T09:06:58.208Z,21.52
2023-10-20T17:41:17.963Z,25.20
2023-10-20T17:43:47.669Z,99.88
2023-10-20T17:46:23.712Z,16.20
2023-10-20T17:51:39.137Z,4.35
2023-10-20T17:54:08.611Z,3.13
2023-10-20T17:56:39.457Z,1.60
2023-10-20T17:59:15.094Z,1.90
2023-10-20T18:01:58.229Z,2.10
2023-10-20T18:04:38.135Z,2.28
2023-10-20T18:07:09.357Z,2.17
2023-10-20T18:09:38.619Z,3.33
2023-10-20T18:12:08.251Z,2.80
2023-10-20T18:14:37.695Z,3.22
2023-10-20T18:17:08.084Z,1.13
2023-10-20T18:19:41.679Z,1.85
2023-10-20T18:22:10.209Z,1.88
2023-10-20T18:24:39.670Z,3.10
2023-10-20T18:27:11.645Z,3.40
2023-10-20T18:29:41.332Z,3.88
2023-10-20T18:32:11.833Z,4.28
2023-10-20T18:34:43.084Z,2.67
2023-10-20T18:37:16.256Z,5.53
2023-10-20T18:39:46.345Z,3.55
2023-10-20T18:42:18.555Z,3.22
2023-10-20T18:44:49.110Z,3.28
2023-10-20T18:47:19.325Z,3.05
2023-10-20T18:49:52.901Z,3.90
2023-10-20T18:52:25.869Z,10.20
2023-10-20T19:11:23.846Z,2.95
2023-10-20T19:16:52.732Z,1.95
2023-10-20T19:19:23.279Z,2.38
2023-10-20T19:21:54.473Z,3.85
2023-10-20T19:27:12.001Z,3.15
2023-10-20T19:49:24.556Z,4.03
2023-10-20T19:57:31.740Z,3.35
2023-10-20T20:00:09.030Z,3.17
2023-10-20T20:02:46.190Z,3.50
2023-10-20T20:05:15.633Z,4.15
2023-10-20T20:08:10.945Z,3.47
2023-10-20T20:10:39.235Z,2.88
2023-10-20T20:13:07.437Z,3.97
2023-10-20T20:15:36.724Z,5.65
2023-10-20T20:18:06.205Z,3.75
2023-10-20T20:20:35.323Z,3.83
2023-10-20T20:23:04.459Z,7.15
2023-10-20T20:25:34.197Z,3.67
2023-10-20T20:28:02.918Z,7.53
2023-10-20T20:30:31.558Z,5.97
2023-10-20T20:33:00.803Z,8.07
2023-10-20T20:35:31.913Z,4.15
2023-10-20T20:38:00.985Z,6.10
2023-10-20T20:40:29.481Z,7.25
2023-10-20T20:42:58.886Z,6.75
2023-10-20T20:45:27.589Z,5.90
2023-10-20T20:47:56.203Z,7.65
2023-10-20T20:50:33.294Z,6.97
2023-10-20T20:53:07.840Z,7.65
2023-10-20T20:55:39.774Z,6.72
2023-10-20T20:58:08.926Z,7.18
2023-10-20T21:00:42.530Z,6.25
2023-10-20T21:06:02.005Z,8.90
2023-10-20T21:08:30.560Z,11.48
2023-10-20T21:11:18.965Z,10.48
2023-10-20T21:16:23.815Z,9.60
2023-10-20T21:19:02.841Z,6.45
2023-10-20T21:21:31.655Z,9.10
2023-10-20T21:24:06.972Z,11.63
2023-10-20T21:26:37.021Z,11.55
2023-10-20T21:29:06.034Z,10.77
2023-10-20T21:31:34.703Z,10.75
2023-10-20T21:34:04.352Z,11.43
2023-10-20T21:36:43.926Z,10.57
2023-10-20T21:44:43.723Z,10.48
2023-10-20T21:47:14.519Z,9.48
2023-10-20T21:49:46.286Z,9.88
2023-10-20T21:55:19.047Z,9.10
2023-10-20T21:57:48.555Z,9.27
2023-10-20T22:00:19.025Z,11.35
2023-10-20T22:02:47.814Z,9.38
2023-10-20T22:05:19.581Z,8.60
2023-10-20T22:07:50.575Z,7.18
2023-10-20T22:10:19.306Z,7.10
2023-10-20T22:12:52.999Z,6.68
2023-10-20T22:15:22.893Z,8.57
2023-10-20T22:17:54.450Z,7.97
2023-10-20T22:20:33.268Z,8.70
2023-10-20T22:23:02.505Z,9.38
2023-10-20T22:25:34.899Z,8.30
2023-10-20T22:30:48.345Z,6.63
2023-10-20T22:33:22.947Z,5.00
2023-10-20T22:41:20.796Z,6.20
2023-10-20T22:46:52.157Z,3.67
2023-10-20T22:57:53.921Z,3.80
2023-10-20T23:00:25.051Z,5.15
2023-10-20T23:03:00.590Z,3.40
2023-10-20T23:08:45.350Z,4.28
2023-10-20T23:11:16.222Z,7.47
2023-10-20T23:16:34.733Z,3.55
2023-10-20T23:19:05.893Z,5.57
2023-10-20T23:29:48.143Z,7.20
2023-10-20T23:32:17.426Z,6.85
2023-10-20T23:37:29.354Z,5.20
2023-10-20T23:40:00.408Z,6.75
2023-10-20T23:42:30.385Z,3.95
2023-10-20T23:45:07.407Z,4.63
2023-10-20T23:47:53.466Z,5.75
2023-10-20T23:56:00.685Z,5.22
2023-10-20T23:58:30.236Z,5.45
